Aurora, Iowa
Current Conditions -  °F | °C
As of 5:15 PM on Thursday 27 Nov 2014 (Local Time) from KOLZ Reporting Station
Clear Clear  
Wind Chill:   Ceiling: Unl
Heat Index:   Visibility: 10mi
Dew Point: -2°   Wind: 3mph
Humidity: 72%   Direction: 270°W
Pressure: 30.42"   Gusts: NA
Location:  42.62°N, 91.73°W
Report Text: KOLZ 272315Z AUTO 27003KT 10SM CLR M15/M19 A3042 RMK AO2
Loading
Personal Weather Stations






























Interactive Weather Map New forecast layout! Learn more

10-Day Weather Forecast

Advertisements
Track Severe Weather on mobile